createdAt,value
2022-11-18T01:01:54.604Z,75.84
2022-11-18T01:03:40.667Z,74.53
2022-11-18T01:05:26.806Z,77.30
2022-11-18T01:07:13.132Z,77.47
2022-11-18T01:08:59.515Z,77.09
2022-11-18T01:10:45.759Z,76.41
2022-11-18T01:12:31.998Z,74.72
2022-11-18T01:14:18.252Z,75.70
2022-11-18T01:16:04.753Z,73.62
2022-11-18T01:17:51.013Z,73.77
2022-11-18T01:19:37.500Z,75.07
2022-11-18T01:21:23.665Z,73.67
2022-11-18T01:23:10.159Z,74.48
2022-11-18T01:24:56.280Z,77.18
2022-11-18T01:26:42.545Z,78.18
2022-11-18T01:28:28.789Z,78.82
2022-11-18T01:30:15.259Z,78.68
2022-11-18T01:32:23.376Z,78.28
2022-11-18T01:33:53.791Z,78.08
2022-11-18T01:35:39.999Z,77.53
2022-11-18T01:37:26.798Z,76.66
2022-11-18T01:39:13.050Z,74.90
2022-11-18T01:40:59.161Z,74.31
2022-11-18T01:42:45.402Z,78.01
2022-11-18T01:44:31.823Z,80.21
2022-11-18T01:46:18.027Z,78.15
2022-11-18T01:48:11.347Z,80.25
2022-11-18T01:49:57.907Z,78.36
2022-11-18T01:51:44.291Z,76.51
2022-11-18T01:53:30.542Z,78.10
2022-11-18T01:55:16.798Z,79.05
2022-11-18T01:57:03.041Z,77.48
2022-11-18T01:58:49.694Z,74.88
2022-11-18T02:00:35.917Z,77.60
2022-11-18T02:02:22.168Z,76.75
2022-11-18T02:04:08.712Z,76.65
2022-11-18T02:05:55.371Z,78.59
2022-11-18T02:07:41.687Z,78.48
2022-11-18T02:09:27.869Z,76.20
2022-11-18T02:11:14.087Z,75.00
2022-11-18T02:13:00.510Z,75.32
2022-11-18T02:14:47.211Z,75.54
2022-11-18T02:16:33.449Z,73.92
2022-11-18T02:18:19.678Z,72.66
2022-11-18T02:20:05.947Z,73.00
2022-11-18T02:21:52.184Z,74.55
2022-11-18T02:23:38.370Z,72.91
2022-11-18T02:25:24.637Z,72.36
2022-11-18T02:27:11.103Z,71.21
2022-11-18T02:28:57.635Z,70.88
2022-11-18T02:30:43.940Z,70.93
2022-11-18T02:32:30.138Z,70.55
2022-11-18T02:34:16.462Z,69.39
2022-11-18T02:36:02.687Z,71.62
2022-11-18T02:37:48.968Z,73.28
2022-11-18T02:39:35.171Z,70.68
2022-11-18T02:41:22.019Z,71.06
2022-11-18T02:43:08.275Z,71.63
2022-11-18T02:44:54.514Z,69.85
2022-11-18T02:46:40.776Z,69.53
2022-11-18T02:48:27.099Z,68.27
2022-11-18T02:50:13.351Z,69.83
2022-11-18T02:51:59.619Z,69.69
2022-11-18T02:53:45.869Z,68.09
2022-11-18T02:55:32.315Z,68.69
2022-11-18T02:57:18.406Z,68.06
2022-11-18T02:59:04.611Z,68.16
2022-11-18T03:00:50.851Z,66.92
2022-11-18T03:02:37.176Z,66.90
2022-11-18T03:04:23.401Z,67.97
2022-11-18T03:06:09.714Z,67.50
2022-11-18T03:07:55.839Z,66.87
2022-11-18T03:09:49.591Z,67.72
2022-11-18T03:11:43.715Z,67.78
2022-11-18T03:13:30.000Z,67.52
2022-11-18T03:15:16.244Z,67.53
2022-11-18T03:17:02.592Z,67.21
2022-11-18T03:18:48.707Z,66.61
2022-11-18T03:20:35.012Z,66.33
2022-11-18T03:22:21.226Z,65.54
2022-11-18T03:24:07.713Z,66.77
2022-11-18T03:25:53.914Z,69.65
2022-11-18T03:27:40.025Z,68.76
2022-11-18T03:29:26.172Z,68.30
2022-11-18T03:31:12.613Z,69.06
2022-11-18T03:32:58.752Z,68.51
2022-11-18T03:34:45.029Z,69.37
2022-11-18T03:36:31.162Z,69.05
2022-11-18T03:38:17.924Z,68.73
2022-11-18T03:40:04.190Z,68.18
2022-11-18T03:41:50.562Z,67.70
2022-11-18T03:43:36.740Z,68.21
2022-11-18T03:45:23.238Z,70.13
2022-11-18T03:47:09.470Z,70.22
2022-11-18T03:48:55.730Z,70.22
2022-11-18T03:50:42.082Z,69.47
2022-11-18T03:52:28.300Z,69.29
2022-11-18T03:54:14.536Z,71.16
2022-11-18T03:56:00.832Z,72.11
2022-11-18T03:57:47.439Z,71.48
2022-11-18T03:59:33.889Z,71.88
2022-11-18T04:01:20.175Z,71.15
2022-11-18T04:03:06.807Z,70.77
2022-11-18T04:04:52.956Z,70.71
2022-11-18T04:06:39.976Z,70.54
2022-11-18T04:08:26.199Z,70.30
2022-11-18T04:10:13.402Z,70.56
2022-11-18T04:11:59.626Z,70.11
2022-11-18T04:13:46.056Z,71.07
2022-11-18T04:15:32.299Z,70.21
2022-11-18T04:17:18.819Z,71.20
2022-11-18T04:19:06.493Z,70.57
2022-11-18T04:20:53.596Z,70.14
2022-11-18T04:22:39.768Z,69.40
2022-11-18T04:24:26.023Z,68.67
2022-11-18T04:26:12.291Z,69.93
2022-11-18T04:27:58.759Z,70.70
2022-11-18T04:29:45.051Z,70.70
2022-11-18T04:31:31.288Z,70.26
2022-11-18T04:33:17.863Z,71.18
2022-11-18T04:35:04.287Z,72.16
2022-11-18T04:36:50.540Z,69.24
2022-11-18T04:38:36.769Z,69.21
2022-11-18T04:40:23.137Z,68.98
2022-11-18T04:42:09.580Z,68.53
2022-11-18T04:43:55.825Z,68.92
2022-11-18T04:45:42.052Z,69.14
2022-11-18T04:47:28.610Z,69.12
2022-11-18T04:49:15.424Z,69.45
2022-11-18T04:51:01.698Z,69.54
2022-11-18T04:52:47.943Z,71.51
2022-11-18T04:54:34.171Z,70.52
2022-11-18T04:56:20.596Z,69.44
2022-11-18T04:58:06.838Z,69.76
2022-11-18T04:59:53.046Z,68.89
2022-11-18T05:01:39.686Z,70.41
2022-11-18T05:03:26.091Z,70.05
2022-11-18T05:05:12.346Z,70.45
2022-11-18T05:07:05.356Z,69.85
2022-11-18T05:08:51.551Z,69.51
2022-11-18T05:10:38.016Z,69.40
2022-11-18T05:12:24.268Z,68.90
2022-11-18T05:14:10.505Z,69.20
2022-11-18T05:15:56.752Z,69.44
2022-11-18T05:17:43.247Z,69.86
2022-11-18T05:19:29.498Z,69.50
2022-11-18T05:21:15.761Z,69.08
2022-11-18T05:23:02.006Z,68.65
2022-11-18T05:24:48.446Z,68.38
2022-11-18T05:26:34.698Z,67.64
2022-11-18T05:28:20.988Z,67.99
2022-11-18T05:30:07.587Z,69.76
2022-11-18T05:31:54.141Z,68.70
2022-11-18T05:33:40.405Z,67.09
2022-11-18T05:35:26.639Z,68.15
2022-11-18T05:37:12.879Z,68.74
2022-11-18T05:38:59.303Z,68.82
2022-11-18T05:40:45.474Z,69.69
2022-11-18T05:42:31.990Z,70.23
2022-11-18T05:44:18.200Z,71.76
2022-11-18T05:46:04.582Z,69.55
2022-11-18T05:47:50.698Z,69.07
2022-11-18T05:49:36.974Z,68.32
2022-11-18T05:51:23.180Z,69.39
2022-11-18T05:53:09.532Z,70.12
2022-11-18T05:54:55.774Z,69.42
2022-11-18T05:56:42.026Z,69.92
2022-11-18T05:58:28.275Z,69.61
2022-11-18T06:00:14.708Z,69.31
2022-11-18T06:02:00.941Z,69.75
2022-11-18T06:03:47.208Z,69.42
2022-11-18T06:05:33.519Z,67.92
2022-11-18T06:07:19.913Z,68.44
2022-11-18T06:09:06.150Z,68.98
2022-11-18T06:10:52.405Z,68.33
2022-11-18T06:12:38.566Z,68.19
2022-11-18T06:14:24.998Z,67.62
2022-11-18T06:16:11.252Z,66.71
2022-11-18T06:17:57.447Z,67.17
2022-11-18T06:19:43.716Z,67.44
2022-11-18T06:21:30.337Z,68.17
2022-11-18T06:23:16.528Z,69.24
2022-11-18T06:25:02.748Z,67.90
2022-11-18T06:26:49.297Z,68.50
2022-11-18T06:28:35.775Z,67.17
2022-11-18T06:30:22.059Z,68.21
2022-11-18T06:32:08.322Z,68.03
2022-11-18T06:33:54.551Z,68.24
2022-11-18T06:35:41.340Z,67.91
2022-11-18T06:37:27.561Z,67.48
2022-11-18T06:39:13.877Z,68.53
2022-11-18T06:41:00.169Z,67.61
2022-11-18T06:42:46.891Z,66.77
2022-11-18T06:44:33.210Z,67.88
2022-11-18T06:46:19.438Z,69.91
2022-11-18T06:48:05.712Z,68.75
2022-11-18T06:49:52.129Z,70.85
2022-11-18T06:51:38.377Z,71.00
2022-11-18T06:53:24.742Z,69.50
2022-11-18T06:55:11.070Z,70.30
2022-11-18T06:56:58.531Z,69.43
2022-11-18T06:58:44.707Z,70.26
2022-11-18T07:00:31.003Z,69.82
2022-11-18T07:02:17.346Z,68.03
2022-11-18T07:04:03.811Z,68.08
2022-11-18T07:05:51.154Z,68.56
2022-11-18T07:07:41.638Z,68.69
2022-11-18T07:09:29.615Z,69.12
2022-11-18T07:11:16.020Z,68.68
2022-11-18T07:13:02.255Z,68.09
2022-11-18T07:14:48.461Z,68.10
2022-11-18T07:16:34.694Z,69.04
2022-11-18T07:18:20.995Z,67.85
2022-11-18T07:20:07.208Z,64.78
2022-11-18T07:21:53.473Z,63.96
2022-11-18T07:23:39.615Z,64.22
2022-11-18T07:25:26.062Z,64.69
2022-11-18T07:27:12.246Z,64.94
2022-11-18T07:28:58.507Z,65.21
2022-11-18T07:30:45.055Z,65.59
2022-11-18T07:32:31.716Z,65.44
2022-11-18T07:34:17.966Z,65.74
2022-11-18T07:36:04.223Z,66.13
2022-11-18T07:37:50.489Z,66.37
2022-11-18T07:39:37.091Z,66.60
2022-11-18T07:41:23.381Z,66.87
2022-11-18T07:43:09.604Z,66.88
2022-11-18T07:44:55.779Z,67.00
2022-11-18T07:46:42.255Z,66.95
2022-11-18T07:48:28.560Z,66.96
2022-11-18T07:50:14.739Z,67.12
2022-11-18T07:52:00.950Z,66.92
2022-11-18T07:53:47.382Z,66.99
2022-11-18T07:55:33.510Z,67.23
2022-11-18T07:57:20.072Z,67.34
2022-11-18T07:59:06.355Z,67.36
2022-11-18T08:00:52.761Z,67.32
2022-11-18T08:02:39.098Z,67.34
2022-11-18T08:04:25.413Z,67.13
2022-11-18T08:06:11.595Z,66.90
2022-11-18T08:07:57.977Z,66.80
2022-11-18T08:09:44.235Z,66.65
2022-11-18T08:11:30.816Z,66.83
2022-11-18T08:13:17.066Z,66.60
2022-11-18T08:15:03.466Z,66.57
2022-11-18T08:16:49.709Z,66.66
2022-11-18T08:18:36.441Z,66.67
2022-11-18T08:20:22.624Z,66.68
2022-11-18T08:22:09.409Z,66.72
2022-11-18T08:23:55.683Z,66.83
2022-11-18T08:25:41.965Z,66.75
2022-11-18T08:27:28.175Z,66.63
2022-11-18T08:29:16.180Z,66.65
2022-11-18T08:31:04.123Z,66.64
2022-11-18T08:32:50.350Z,66.53
2022-11-18T08:34:36.565Z,66.44
2022-11-18T08:36:22.889Z,66.41
2022-11-18T08:38:09.121Z,66.50
2022-11-18T08:39:55.344Z,66.37
2022-11-18T08:41:41.610Z,66.30
2022-11-18T08:43:27.935Z,66.25
2022-11-18T08:45:14.221Z,66.43
2022-11-18T08:47:00.460Z,66.55
2022-11-18T08:48:46.708Z,66.51
2022-11-18T08:50:33.118Z,66.39
2022-11-18T08:52:20.591Z,66.30
2022-11-18T08:54:06.792Z,66.43
2022-11-18T08:55:56.901Z,66.47
2022-11-18T08:57:43.508Z,66.40
2022-11-18T08:59:29.722Z,66.26
2022-11-18T09:01:16.143Z,66.34
2022-11-18T09:03:02.639Z,66.36
2022-11-18T09:04:49.096Z,66.29
2022-11-18T09:06:35.369Z,66.25
2022-11-18T09:08:21.616Z,66.32
2022-11-18T09:10:07.856Z,66.34
